North Hill, Ohio
Current Conditions -  °F | °C
As of 3:54 AM on Friday 19 Dec 2014 (Local Time) from KAKR Reporting Station
Haze Haze  
Wind Chill: 21°   Ceiling: 800
Heat Index: 30°   Visibility: 6mi
Dew Point: 27°   Wind: 10mph
Humidity: 88%   Direction: 280°W
Pressure: 30.16"   Gusts: NA
Location:  41.1073°N, 81.4965°W
Report Text: KAKR 190854Z AUTO 28009KT 6SM BR OVC008 M01/M03 A3016 RMK AO2 SLP223 I3001 T10111028 53004 $
Loading
Personal Weather Stations






























Interactive Weather Map New forecast layout! Learn more

10-Day Weather Forecast

Advertisements
Track Severe Weather on mobile